Cheyenne, WY (82007)

5:28 PM MST on November 28, 2014 (GMT -0700)
Rolling Hills Estates | Change Station
CLOSE
Current Station
Personal Weather Station
Location: Cheyenne, WY
Elevation: 6214 ft
Nearby Weather Stations

Elev 6214 ft 41.14 °N, 104.90 °W | Updated 5 seconds ago

Clear
Clear
47.3 °F
Feels Like 47 °F
N
2.0
Wind Variable Wind from SW
Gusts 2.5 mph

Today
High -- | Low -- °F
--% Chance of Precip.
Yesterday
High -- | Low -- °F
Precip. -- in
7:02 AM 4:32 PM
Waxing Crescent, 45% visible
Pressure 29.70 in
Visibility 10.0 miles
Clouds Clear
Windchill 47 °F
Dew Point 19 °F
Humidity 32%
Rainfall 0.00 in
Snow Depth Not available.
UV 0 out of 12
Pollen .10 out of 12
Air Quality Not available.
Flu Activity Not available.
METAR KFEW 282356Z AUTO 22010KT 10SM CLR 09/M11 A2981 RMK AO2 SLP057 T00891108 10156 20089 52013

More Conditions Fewer Conditions

Pressure 29.70 in
Visibility 10.0 miles
Clouds Clear
Windchill 47 °F
Dew Point 19 °F
Humidity 32%
Rainfall 0.00 in
Snow Depth Not available.
UV 0 out of 12
Pollen .10 out of 12
Air Quality Not available.
Flu Activity Not available.
METAR KFEW 282356Z AUTO 22010KT 10SM CLR 09/M11 A2981 RMK AO2 SLP057 T00891108 10156 20089 52013

More Conditions Fewer Conditions

10-Day Weather Forecast

Almanac

Astronomy

Nov. 28, 2014 Rise Set
Actual Time
Civil Twilight
Nautical Twilight
Astronomical Twilight
Moon
Length of Visible Light
Length of Day
Tomorrow will be .
, % of the Moon is Illuminated

Today's Extremes

State Highs State Lows

Community

WunderPhotos

Upload Photos

1,774,343 photos uploaded!

WunderBlogs® & News

Nearby

Air Quality

  Air Quality AQ Index Pollutant
Not available.

Snow Depth

Station Depth Elevation

Earthquake Activity

City Distance Mag. Time & Date
Minimum magnitude displayed is 2.5.

Coastal Water Temperatures

Place Temperature

Nearby Weather Stations